sensor_id;sensor_type;location;lat;lon;timestamp;temperature;humidity
13642;DHT22;6894;52.196;9.904;2022-07-21T00:01:19;24.20;99.90
13642;DHT22;6894;52.196;9.904;2022-07-21T00:03:46;24.20;99.90
13642;DHT22;6894;52.196;9.904;2022-07-21T00:06:13;24.20;99.90
13642;DHT22;6894;52.196;9.904;2022-07-21T00:08:40;24.20;99.90
13642;DHT22;6894;52.196;9.904;2022-07-21T00:11:06;24.20;99.90
13642;DHT22;6894;52.196;9.904;2022-07-21T00:13:33;24.20;99.90
13642;DHT22;6894;52.196;9.904;2022-07-21T00:16:00;24.20;99.90
13642;DHT22;6894;52.196;9.904;2022-07-21T00:18:28;24.20;99.90
13642;DHT22;6894;52.196;9.904;2022-07-21T00:20:55;24.30;99.90
13642;DHT22;6894;52.196;9.904;2022-07-21T00:23:23;24.20;99.90
13642;DHT22;6894;52.196;9.904;2022-07-21T00:25:50;24.30;99.90
13642;DHT22;6894;52.196;9.904;2022-07-21T00:28:17;24.30;99.90
13642;DHT22;6894;52.196;9.904;2022-07-21T00:30:45;24.30;99.90
13642;DHT22;6894;52.196;9.904;2022-07-21T00:33:13;24.10;99.90
13642;DHT22;6894;52.196;9.904;2022-07-21T00:35:41;24.00;99.90
13642;DHT22;6894;52.196;9.904;2022-07-21T00:38:08;24.00;99.90
13642;DHT22;6894;52.196;9.904;2022-07-21T00:40:34;23.90;99.90
13642;DHT22;6894;52.196;9.904;2022-07-21T00:43:01;23.80;99.90
13642;DHT22;6894;52.196;9.904;2022-07-21T00:45:28;23.80;99.90
13642;DHT22;6894;52.196;9.904;2022-07-21T00:47:55;23.80;99.90
13642;DHT22;6894;52.196;9.904;2022-07-21T00:50:22;23.80;99.90
13642;DHT22;6894;52.196;9.904;2022-07-21T00:52:50;23.90;99.90
13642;DHT22;6894;52.196;9.904;2022-07-21T00:55:19;23.80;99.90
13642;DHT22;6894;52.196;9.904;2022-07-21T00:57:47;23.80;99.90
13642;DHT22;6894;52.196;9.904;2022-07-21T01:00:16;23.70;99.90
13642;DHT22;6894;52.196;9.904;2022-07-21T01:02:43;23.70;99.90
13642;DHT22;6894;52.196;9.904;2022-07-21T01:05:12;23.70;99.90
13642;DHT22;6894;52.196;9.904;2022-07-21T01:07:40;23.60;99.90
13642;DHT22;6894;52.196;9.904;2022-07-21T01:10:09;23.60;99.90
13642;DHT22;6894;52.196;9.904;2022-07-21T01:12:37;23.50;99.90
13642;DHT22;6894;52.196;9.904;2022-07-21T01:15:05;23.40;99.90
13642;DHT22;6894;52.196;9.904;2022-07-21T01:17:32;23.40;99.90
13642;DHT22;6894;52.196;9.904;2022-07-21T01:20:02;23.40;99.90
13642;DHT22;6894;52.196;9.904;2022-07-21T01:22:31;23.30;99.90
13642;DHT22;6894;52.196;9.904;2022-07-21T01:24:58;23.20;99.90
13642;DHT22;6894;52.196;9.904;2022-07-21T01:27:25;23.20;99.90
13642;DHT22;6894;52.196;9.904;2022-07-21T01:29:52;23.10;99.90
13642;DHT22;6894;52.196;9.904;2022-07-21T01:32:19;23.10;99.90
13642;DHT22;6894;52.196;9.904;2022-07-21T01:34:46;23.10;99.90
13642;DHT22;6894;52.196;9.904;2022-07-21T01:37:13;23.10;99.90
13642;DHT22;6894;52.196;9.904;2022-07-21T01:39:42;23.00;99.90
13642;DHT22;6894;52.196;9.904;2022-07-21T01:42:40;22.90;99.90
13642;DHT22;6894;52.196;9.904;2022-07-21T01:45:08;22.80;99.90
13642;DHT22;6894;52.196;9.904;2022-07-21T01:47:35;22.80;99.90
13642;DHT22;6894;52.196;9.904;2022-07-21T01:50:02;22.70;99.90
13642;DHT22;6894;52.196;9.904;2022-07-21T01:52:29;22.80;99.90
13642;DHT22;6894;52.196;9.904;2022-07-21T01:54:57;22.60;99.90
13642;DHT22;6894;52.196;9.904;2022-07-21T01:57:24;22.50;99.90
13642;DHT22;6894;52.196;9.904;2022-07-21T01:59:51;22.60;99.90
13642;DHT22;6894;52.196;9.904;2022-07-21T02:02:17;22.60;99.90
13642;DHT22;6894;52.196;9.904;2022-07-21T02:04:46;22.40;99.90
13642;DHT22;6894;52.196;9.904;2022-07-21T02:07:13;22.30;99.90
13642;DHT22;6894;52.196;9.904;2022-07-21T02:09:40;22.40;99.90
13642;DHT22;6894;52.196;9.904;2022-07-21T02:12:08;22.30;99.90
13642;DHT22;6894;52.196;9.904;2022-07-21T02:14:35;22.20;99.90
13642;DHT22;6894;52.196;9.904;2022-07-21T02:17:02;22.20;99.90
13642;DHT22;6894;52.196;9.904;2022-07-21T02:19:29;22.20;99.90
13642;DHT22;6894;52.196;9.904;2022-07-21T02:21:56;22.10;99.90
13642;DHT22;6894;52.196;9.904;2022-07-21T02:24:22;21.90;99.90
13642;DHT22;6894;52.196;9.904;2022-07-21T02:26:49;21.80;99.90
13642;DHT22;6894;52.196;9.904;2022-07-21T02:29:17;21.80;99.90
13642;DHT22;6894;52.196;9.904;2022-07-21T02:31:44;21.70;99.90
13642;DHT22;6894;52.196;9.904;2022-07-21T02:34:11;21.60;99.90
13642;DHT22;6894;52.196;9.904;2022-07-21T02:36:38;21.50;99.90
13642;DHT22;6894;52.196;9.904;2022-07-21T02:39:05;21.30;99.90
13642;DHT22;6894;52.196;9.904;2022-07-21T02:41:31;21.30;99.90
13642;DHT22;6894;52.196;9.904;2022-07-21T02:43:58;21.30;99.90
13642;DHT22;6894;52.196;9.904;2022-07-21T02:46:26;21.30;99.90
13642;DHT22;6894;52.196;9.904;2022-07-21T02:48:53;21.10;99.90
13642;DHT22;6894;52.196;9.904;2022-07-21T02:51:20;21.10;99.90
13642;DHT22;6894;52.196;9.904;2022-07-21T02:53:47;21.20;99.90
13642;DHT22;6894;52.196;9.904;2022-07-21T02:56:15;21.30;99.90
13642;DHT22;6894;52.196;9.904;2022-07-21T02:58:42;21.30;99.90
13642;DHT22;6894;52.196;9.904;2022-07-21T03:01:09;21.30;99.90
13642;DHT22;6894;52.196;9.904;2022-07-21T03:03:38;21.40;99.90
13642;DHT22;6894;52.196;9.904;2022-07-21T03:06:05;21.40;99.90
13642;DHT22;6894;52.196;9.904;2022-07-21T03:08:32;21.40;99.90
13642;DHT22;6894;52.196;9.904;2022-07-21T03:11:00;21.50;99.90
13642;DHT22;6894;52.196;9.904;2022-07-21T03:13:28;21.50;99.90
13642;DHT22;6894;52.196;9.904;2022-07-21T03:15:55;21.60;99.90
13642;DHT22;6894;52.196;9.904;2022-07-21T03:18:22;21.60;99.90
13642;DHT22;6894;52.196;9.904;2022-07-21T03:20:50;21.50;99.90
13642;DHT22;6894;52.196;9.904;2022-07-21T03:23:17;21.50;99.90
13642;DHT22;6894;52.196;9.904;2022-07-21T03:25:44;21.60;99.90
13642;DHT22;6894;52.196;9.904;2022-07-21T03:28:11;21.60;99.90
13642;DHT22;6894;52.196;9.904;2022-07-21T03:30:38;21.60;99.90
13642;DHT22;6894;52.196;9.904;2022-07-21T03:33:05;21.70;99.90
13642;DHT22;6894;52.196;9.904;2022-07-21T03:35:32;21.70;99.90
13642;DHT22;6894;52.196;9.904;2022-07-21T03:38:03;21.60;99.90
13642;DHT22;6894;52.196;9.904;2022-07-21T03:40:32;21.50;99.90
13642;DHT22;6894;52.196;9.904;2022-07-21T03:43:00;21.40;99.90
13642;DHT22;6894;52.196;9.904;2022-07-21T03:45:27;21.30;99.90
13642;DHT22;6894;52.196;9.904;2022-07-21T03:47:55;21.20;99.90
13642;DHT22;6894;52.196;9.904;2022-07-21T03:50:22;21.30;99.90
13642;DHT22;6894;52.196;9.904;2022-07-21T03:52:49;21.30;99.90
13642;DHT22;6894;52.196;9.904;2022-07-21T03:55:17;21.30;99.90
13642;DHT22;6894;52.196;9.904;2022-07-21T03:57:45;21.30;99.90
13642;DHT22;6894;52.196;9.904;2022-07-21T04:00:15;21.20;99.90
13642;DHT22;6894;52.196;9.904;2022-07-21T04:02:42;21.10;99.90
13642;DHT22;6894;52.196;9.904;2022-07-21T04:05:10;21.00;99.90
13642;DHT22;6894;52.196;9.904;2022-07-21T04:07:39;20.90;99.90
13642;DHT22;6894;52.196;9.904;2022-07-21T04:10:07;20.90;99.90
13642;DHT22;6894;52.196;9.904;2022-07-21T04:12:35;20.80;99.90
13642;DHT22;6894;52.196;9.904;2022-07-21T04:15:03;20.90;99.90
13642;DHT22;6894;52.196;9.904;2022-07-21T04:17:30;20.90;99.90
13642;DHT22;6894;52.196;9.904;2022-07-21T04:19:56;20.90;99.90
13642;DHT22;6894;52.196;9.904;2022-07-21T04:22:23;20.90;99.90
13642;DHT22;6894;52.196;9.904;2022-07-21T04:24:50;20.90;99.90
13642;DHT22;6894;52.196;9.904;2022-07-21T04:27:17;20.80;99.90
13642;DHT22;6894;52.196;9.904;2022-07-21T04:29:45;20.80;99.90
13642;DHT22;6894;52.196;9.904;2022-07-21T04:32:12;20.70;99.90
13642;DHT22;6894;52.196;9.904;2022-07-21T04:34:39;20.60;99.90
13642;DHT22;6894;52.196;9.904;2022-07-21T04:37:05;20.70;99.90
13642;DHT22;6894;52.196;9.904;2022-07-21T04:39:32;20.70;99.90
13642;DHT22;6894;52.196;9.904;2022-07-21T04:41:59;20.60;99.90
13642;DHT22;6894;52.196;9.904;2022-07-21T04:44:26;20.60;99.90
13642;DHT22;6894;52.196;9.904;2022-07-21T04:46:54;20.60;99.90
13642;DHT22;6894;52.196;9.904;2022-07-21T04:49:21;20.60;99.90
13642;DHT22;6894;52.196;9.904;2022-07-21T04:51:47;20.60;99.90
13642;DHT22;6894;52.196;9.904;2022-07-21T04:54:15;20.60;99.90
13642;DHT22;6894;52.196;9.904;2022-07-21T04:56:42;20.70;99.90
13642;DHT22;6894;52.196;9.904;2022-07-21T04:59:10;20.70;99.90
13642;DHT22;6894;52.196;9.904;2022-07-21T05:01:37;20.60;99.90
13642;DHT22;6894;52.196;9.904;2022-07-21T05:04:06;20.60;99.90
13642;DHT22;6894;52.196;9.904;2022-07-21T05:06:33;20.60;99.90
13642;DHT22;6894;52.196;9.904;2022-07-21T05:09:00;20.60;99.90
13642;DHT22;6894;52.196;9.904;2022-07-21T05:11:27;20.60;99.90
13642;DHT22;6894;52.196;9.904;2022-07-21T05:13:54;20.60;99.90
13642;DHT22;6894;52.196;9.904;2022-07-21T05:16:20;20.60;99.90
13642;DHT22;6894;52.196;9.904;2022-07-21T05:18:47;20.60;99.90
13642;DHT22;6894;52.196;9.904;2022-07-21T05:21:15;20.70;99.90
13642;DHT22;6894;52.196;9.904;2022-07-21T05:23:42;20.80;99.90
13642;DHT22;6894;52.196;9.904;2022-07-21T05:26:11;20.80;99.90
13642;DHT22;6894;52.196;9.904;2022-07-21T05:28:38;20.80;99.90
13642;DHT22;6894;52.196;9.904;2022-07-21T05:31:07;20.80;99.90
13642;DHT22;6894;52.196;9.904;2022-07-21T05:33:33;20.80;99.90
13642;DHT22;6894;52.196;9.904;2022-07-21T05:36:01;20.80;99.90
13642;DHT22;6894;52.196;9.904;2022-07-21T05:38:29;20.70;99.90
13642;DHT22;6894;52.196;9.904;2022-07-21T05:40:56;20.70;99.90
13642;DHT22;6894;52.196;9.904;2022-07-21T05:43:25;20.70;99.90
13642;DHT22;6894;52.196;9.904;2022-07-21T05:45:52;20.60;99.90
13642;DHT22;6894;52.196;9.904;2022-07-21T05:48:19;20.70;99.90
13642;DHT22;6894;52.196;9.904;2022-07-21T05:50:46;20.70;99.90
13642;DHT22;6894;52.196;9.904;2022-07-21T05:53:13;20.70;99.90
13642;DHT22;6894;52.196;9.904;2022-07-21T05:55:41;20.70;99.90
13642;DHT22;6894;52.196;9.904;2022-07-21T05:58:08;20.60;99.90
13642;DHT22;6894;52.196;9.904;2022-07-21T06:00:35;20.60;99.90
13642;DHT22;6894;52.196;9.904;2022-07-21T06:03:02;20.70;99.90
13642;DHT22;6894;52.196;9.904;2022-07-21T06:05:29;20.70;99.90
13642;DHT22;6894;52.196;9.904;2022-07-21T06:07:55;20.70;99.90
13642;DHT22;6894;52.196;9.904;2022-07-21T06:10:22;20.80;99.90
13642;DHT22;6894;52.196;9.904;2022-07-21T06:12:50;20.90;99.90
13642;DHT22;6894;52.196;9.904;2022-07-21T06:15:17;21.00;99.90
13642;DHT22;6894;52.196;9.904;2022-07-21T06:17:45;21.00;99.90
13642;DHT22;6894;52.196;9.904;2022-07-21T06:20:13;21.00;99.90
13642;DHT22;6894;52.196;9.904;2022-07-21T06:22:40;21.00;99.90
13642;DHT22;6894;52.196;9.904;2022-07-21T06:25:07;21.00;99.90
13642;DHT22;6894;52.196;9.904;2022-07-21T06:27:34;21.00;99.90
13642;DHT22;6894;52.196;9.904;2022-07-21T06:30:04;21.10;99.90
13642;DHT22;6894;52.196;9.904;2022-07-21T06:32:31;21.20;99.90
13642;DHT22;6894;52.196;9.904;2022-07-21T06:34:57;21.30;99.90
13642;DHT22;6894;52.196;9.904;2022-07-21T06:37:24;21.30;99.90
13642;DHT22;6894;52.196;9.904;2022-07-21T06:39:51;21.20;99.90
13642;DHT22;6894;52.196;9.904;2022-07-21T06:42:18;21.20;99.90
13642;DHT22;6894;52.196;9.904;2022-07-21T06:44:44;21.10;99.90
13642;DHT22;6894;52.196;9.904;2022-07-21T06:47:13;21.20;99.90
13642;DHT22;6894;52.196;9.904;2022-07-21T06:49:39;21.20;99.90
13642;DHT22;6894;52.196;9.904;2022-07-21T06:52:06;21.20;99.90
13642;DHT22;6894;52.196;9.904;2022-07-21T06:54:33;21.30;99.90
13642;DHT22;6894;52.196;9.904;2022-07-21T06:57:00;21.30;99.90
13642;DHT22;6894;52.196;9.904;2022-07-21T06:59:26;21.40;99.90
13642;DHT22;6894;52.196;9.904;2022-07-21T07:01:53;21.40;99.90
13642;DHT22;6894;52.196;9.904;2022-07-21T07:04:22;21.50;99.90
13642;DHT22;6894;52.196;9.904;2022-07-21T07:06:48;21.60;99.90
13642;DHT22;6894;52.196;9.904;2022-07-21T07:09:17;21.70;99.90
13642;DHT22;6894;52.196;9.904;2022-07-21T07:11:44;21.80;99.90
13642;DHT22;6894;52.196;9.904;2022-07-21T07:14:12;22.00;99.90
13642;DHT22;6894;52.196;9.904;2022-07-21T07:16:39;22.10;99.90
13642;DHT22;6894;52.196;9.904;2022-07-21T07:19:05;22.10;99.90
13642;DHT22;6894;52.196;9.904;2022-07-21T07:21:33;22.20;99.90
13642;DHT22;6894;52.196;9.904;2022-07-21T07:24:00;22.20;99.90
13642;DHT22;6894;52.196;9.904;2022-07-21T07:26:28;22.30;99.90
13642;DHT22;6894;52.196;9.904;2022-07-21T07:28:54;22.30;99.90
13642;DHT22;6894;52.196;9.904;2022-07-21T07:31:21;22.20;99.90
13642;DHT22;6894;52.196;9.904;2022-07-21T07:33:48;22.20;99.90
13642;DHT22;6894;52.196;9.904;2022-07-21T07:36:15;22.40;99.90
13642;DHT22;6894;52.196;9.904;2022-07-21T07:38:43;22.40;99.90
13642;DHT22;6894;52.196;9.904;2022-07-21T07:41:10;22.60;99.90
13642;DHT22;6894;52.196;9.904;2022-07-21T07:43:37;22.70;99.90
13642;DHT22;6894;52.196;9.904;2022-07-21T07:46:04;22.70;99.90
13642;DHT22;6894;52.196;9.904;2022-07-21T07:48:31;22.60;99.90
13642;DHT22;6894;52.196;9.904;2022-07-21T07:51:00;22.30;99.90
13642;DHT22;6894;52.196;9.904;2022-07-21T07:53:26;22.20;99.90
13642;DHT22;6894;52.196;9.904;2022-07-21T07:55:54;22.20;99.90
13642;DHT22;6894;52.196;9.904;2022-07-21T07:58:21;22.00;99.90
13642;DHT22;6894;52.196;9.904;2022-07-21T08:00:48;21.80;99.90
13642;DHT22;6894;52.196;9.904;2022-07-21T08:03:15;21.80;99.90
13642;DHT22;6894;52.196;9.904;2022-07-21T08:05:42;21.70;99.90
13642;DHT22;6894;52.196;9.904;2022-07-21T08:08:09;21.60;99.90
13642;DHT22;6894;52.196;9.904;2022-07-21T08:10:36;21.60;99.90
13642;DHT22;6894;52.196;9.904;2022-07-21T08:13:04;21.40;99.90
13642;DHT22;6894;52.196;9.904;2022-07-21T08:15:31;21.30;99.90
13642;DHT22;6894;52.196;9.904;2022-07-21T08:17:58;21.20;99.90
13642;DHT22;6894;52.196;9.904;2022-07-21T08:20:25;21.10;99.90
13642;DHT22;6894;52.196;9.904;2022-07-21T08:22:51;21.10;99.90
13642;DHT22;6894;52.196;9.904;2022-07-21T08:25:18;21.10;99.90
13642;DHT22;6894;52.196;9.904;2022-07-21T08:27:45;20.90;99.90
13642;DHT22;6894;52.196;9.904;2022-07-21T08:30:13;20.80;99.90
13642;DHT22;6894;52.196;9.904;2022-07-21T08:32:40;20.80;99.90
13642;DHT22;6894;52.196;9.904;2022-07-21T08:35:08;20.90;99.90
13642;DHT22;6894;52.196;9.904;2022-07-21T08:37:35;20.90;99.90
13642;DHT22;6894;52.196;9.904;2022-07-21T08:40:03;20.90;99.90
13642;DHT22;6894;52.196;9.904;2022-07-21T08:42:30;21.10;99.90
13642;DHT22;6894;52.196;9.904;2022-07-21T08:44:57;21.20;99.90
13642;DHT22;6894;52.196;9.904;2022-07-21T08:47:26;21.40;99.90
13642;DHT22;6894;52.196;9.904;2022-07-21T08:49:53;21.50;99.90
13642;DHT22;6894;52.196;9.904;2022-07-21T08:52:21;21.60;99.90
13642;DHT22;6894;52.196;9.904;2022-07-21T08:54:48;21.50;99.90
13642;DHT22;6894;52.196;9.904;2022-07-21T08:57:15;21.70;99.90
13642;DHT22;6894;52.196;9.904;2022-07-21T08:59:42;21.80;99.90
13642;DHT22;6894;52.196;9.904;2022-07-21T09:02:27;22.00;99.90
13642;DHT22;6894;52.196;9.904;2022-07-21T09:04:54;21.80;99.90
13642;DHT22;6894;52.196;9.904;2022-07-21T09:07:21;21.80;99.90
13642;DHT22;6894;52.196;9.904;2022-07-21T09:09:55;21.80;99.90
13642;DHT22;6894;52.196;9.904;2022-07-21T09:12:23;22.00;99.90
13642;DHT22;6894;52.196;9.904;2022-07-21T09:14:49;22.20;99.90
13642;DHT22;6894;52.196;9.904;2022-07-21T09:17:18;22.40;99.90
13642;DHT22;6894;52.196;9.904;2022-07-21T09:19:47;22.70;99.90
13642;DHT22;6894;52.196;9.904;2022-07-21T09:22:18;22.70;99.90
13642;DHT22;6894;52.196;9.904;2022-07-21T09:24:51;22.60;99.90
13642;DHT22;6894;52.196;9.904;2022-07-21T09:27:22;22.60;99.90
13642;DHT22;6894;52.196;9.904;2022-07-21T09:29:53;22.50;99.90
13642;DHT22;6894;52.196;9.904;2022-07-21T09:32:22;22.60;99.90
13642;DHT22;6894;52.196;9.904;2022-07-21T09:34:52;22.60;99.90
13642;DHT22;6894;52.196;9.904;2022-07-21T09:37:21;22.60;99.90
13642;DHT22;6894;52.196;9.904;2022-07-21T09:39:52;22.90;99.90
13642;DHT22;6894;52.196;9.904;2022-07-21T09:42:24;22.90;99.90
13642;DHT22;6894;52.196;9.904;2022-07-21T09:44:53;22.90;99.90
13642;DHT22;6894;52.196;9.904;2022-07-21T09:47:21;22.90;99.90
13642;DHT22;6894;52.196;9.904;2022-07-21T09:49:53;23.00;99.90
13642;DHT22;6894;52.196;9.904;2022-07-21T09:52:22;23.00;99.90
13642;DHT22;6894;52.196;9.904;2022-07-21T09:54:52;22.90;99.90
13642;DHT22;6894;52.196;9.904;2022-07-21T09:57:20;23.20;99.90
13642;DHT22;6894;52.196;9.904;2022-07-21T09:59:49;23.30;99.90
13642;DHT22;6894;52.196;9.904;2022-07-21T10:02:20;23.20;99.90
13642;DHT22;6894;52.196;9.904;2022-07-21T10:04:54;23.40;99.90
13642;DHT22;6894;52.196;9.904;2022-07-21T10:07:22;23.70;99.90
13642;DHT22;6894;52.196;9.904;2022-07-21T10:09:49;24.10;99.90
13642;DHT22;6894;52.196;9.904;2022-07-21T10:12:16;24.30;99.90
13642;DHT22;6894;52.196;9.904;2022-07-21T10:14:43;24.80;99.90
13642;DHT22;6894;52.196;9.904;2022-07-21T10:17:12;25.40;99.90
13642;DHT22;6894;52.196;9.904;2022-07-21T10:19:45;25.70;99.90
13642;DHT22;6894;52.196;9.904;2022-07-21T10:22:23;26.00;99.90
13642;DHT22;6894;52.196;9.904;2022-07-21T10:24:52;26.60;99.90
13642;DHT22;6894;52.196;9.904;2022-07-21T10:27:19;26.30;99.90
13642;DHT22;6894;52.196;9.904;2022-07-21T10:29:55;26.00;99.90
13642;DHT22;6894;52.196;9.904;2022-07-21T10:32:24;26.10;99.90
13642;DHT22;6894;52.196;9.904;2022-07-21T10:34:52;26.50;99.90
13642;DHT22;6894;52.196;9.904;2022-07-21T10:37:48;26.10;99.90
13642;DHT22;6894;52.196;9.904;2022-07-21T10:40:38;25.90;99.90
13642;DHT22;6894;52.196;9.904;2022-07-21T10:43:36;25.60;99.90
13642;DHT22;6894;52.196;9.904;2022-07-21T10:46:34;25.90;99.90
13642;DHT22;6894;52.196;9.904;2022-07-21T10:49:02;26.10;99.90
13642;DHT22;6894;52.196;9.904;2022-07-21T10:51:32;26.10;99.90
13642;DHT22;6894;52.196;9.904;2022-07-21T10:54:19;26.20;99.90
13642;DHT22;6894;52.196;9.904;2022-07-21T10:56:46;26.30;99.90
13642;DHT22;6894;52.196;9.904;2022-07-21T10:59:13;26.10;99.90
13642;DHT22;6894;52.196;9.904;2022-07-21T11:01:40;26.10;99.90
13642;DHT22;6894;52.196;9.904;2022-07-21T11:04:09;26.10;99.90
13642;DHT22;6894;52.196;9.904;2022-07-21T11:06:37;26.10;99.90
13642;DHT22;6894;52.196;9.904;2022-07-21T11:09:12;26.60;99.90
13642;DHT22;6894;52.196;9.904;2022-07-21T11:11:58;26.90;99.90
13642;DHT22;6894;52.196;9.904;2022-07-21T11:14:36;26.90;99.90
13642;DHT22;6894;52.196;9.904;2022-07-21T11:17:04;26.60;99.90
13642;DHT22;6894;52.196;9.904;2022-07-21T11:19:34;26.40;99.90
13642;DHT22;6894;52.196;9.904;2022-07-21T11:22:05;26.00;99.90
13642;DHT22;6894;52.196;9.904;2022-07-21T11:24:33;25.60;99.90
13642;DHT22;6894;52.196;9.904;2022-07-21T11:27:03;25.40;99.90
13642;DHT22;6894;52.196;9.904;2022-07-21T11:29:31;25.60;99.90
13642;DHT22;6894;52.196;9.904;2022-07-21T11:31:58;25.60;99.90
13642;DHT22;6894;52.196;9.904;2022-07-21T11:34:37;25.40;99.90
13642;DHT22;6894;52.196;9.904;2022-07-21T11:37:04;24.90;99.90
13642;DHT22;6894;52.196;9.904;2022-07-21T11:39:31;24.80;99.90
13642;DHT22;6894;52.196;9.904;2022-07-21T11:42:04;24.90;99.90
13642;DHT22;6894;52.196;9.904;2022-07-21T11:44:31;25.20;99.90
13642;DHT22;6894;52.196;9.904;2022-07-21T11:46:59;25.60;99.90
13642;DHT22;6894;52.196;9.904;2022-07-21T11:49:27;25.90;99.90
13642;DHT22;6894;52.196;9.904;2022-07-21T11:51:56;26.20;99.90
13642;DHT22;6894;52.196;9.904;2022-07-21T11:54:27;26.40;99.90
13642;DHT22;6894;52.196;9.904;2022-07-21T11:56:54;26.10;99.90
13642;DHT22;6894;52.196;9.904;2022-07-21T11:59:24;25.90;99.90
13642;DHT22;6894;52.196;9.904;2022-07-21T12:01:56;25.80;99.90
13642;DHT22;6894;52.196;9.904;2022-07-21T12:04:42;25.70;99.90
13642;DHT22;6894;52.196;9.904;2022-07-21T12:07:16;25.20;99.90
13642;DHT22;6894;52.196;9.904;2022-07-21T12:09:44;24.90;99.90
13642;DHT22;6894;52.196;9.904;2022-07-21T12:12:12;24.60;99.90
13642;DHT22;6894;52.196;9.904;2022-07-21T12:14:42;24.30;99.90
13642;DHT22;6894;52.196;9.904;2022-07-21T12:17:09;24.20;99.90
13642;DHT22;6894;52.196;9.904;2022-07-21T12:19:36;23.90;99.90
13642;DHT22;6894;52.196;9.904;2022-07-21T12:22:03;23.80;99.90
13642;DHT22;6894;52.196;9.904;2022-07-21T12:25:04;23.70;99.90
13642;DHT22;6894;52.196;9.904;2022-07-21T12:27:34;23.50;99.90
13642;DHT22;6894;52.196;9.904;2022-07-21T12:30:04;23.30;99.90
13642;DHT22;6894;52.196;9.904;2022-07-21T12:32:39;23.20;99.90
13642;DHT22;6894;52.196;9.904;2022-07-21T12:35:16;23.00;99.90
13642;DHT22;6894;52.196;9.904;2022-07-21T12:37:58;22.90;99.90
13642;DHT22;6894;52.196;9.904;2022-07-21T12:40:26;22.80;99.90
13642;DHT22;6894;52.196;9.904;2022-07-21T12:43:11;22.80;99.90
13642;DHT22;6894;52.196;9.904;2022-07-21T12:45:54;22.80;99.90
13642;DHT22;6894;52.196;9.904;2022-07-21T12:48:24;22.70;99.90
13642;DHT22;6894;52.196;9.904;2022-07-21T12:51:11;22.90;99.90
13642;DHT22;6894;52.196;9.904;2022-07-21T12:53:42;23.00;99.90
13642;DHT22;6894;52.196;9.904;2022-07-21T12:56:11;23.10;99.90
13642;DHT22;6894;52.196;9.904;2022-07-21T12:58:39;23.10;99.90
13642;DHT22;6894;52.196;9.904;2022-07-21T13:01:07;23.10;99.90
13642;DHT22;6894;52.196;9.904;2022-07-21T13:03:34;23.20;99.90
13642;DHT22;6894;52.196;9.904;2022-07-21T13:06:03;23.30;99.90
13642;DHT22;6894;52.196;9.904;2022-07-21T13:08:31;23.40;99.90
13642;DHT22;6894;52.196;9.904;2022-07-21T13:10:58;23.80;99.90
13642;DHT22;6894;52.196;9.904;2022-07-21T13:13:26;23.90;99.90
13642;DHT22;6894;52.196;9.904;2022-07-21T13:15:53;24.20;99.90
13642;DHT22;6894;52.196;9.904;2022-07-21T13:18:22;24.40;99.90
13642;DHT22;6894;52.196;9.904;2022-07-21T13:20:49;24.60;99.90
13642;DHT22;6894;52.196;9.904;2022-07-21T13:23:16;24.70;99.90
13642;DHT22;6894;52.196;9.904;2022-07-21T13:25:43;24.90;99.90
13642;DHT22;6894;52.196;9.904;2022-07-21T13:28:09;24.80;99.90
13642;DHT22;6894;52.196;9.904;2022-07-21T13:30:36;24.70;99.90
13642;DHT22;6894;52.196;9.904;2022-07-21T13:33:03;24.70;99.90
13642;DHT22;6894;52.196;9.904;2022-07-21T13:35:31;24.90;99.90
13642;DHT22;6894;52.196;9.904;2022-07-21T13:37:58;25.10;99.90
13642;DHT22;6894;52.196;9.904;2022-07-21T13:40:26;25.20;99.90
13642;DHT22;6894;52.196;9.904;2022-07-21T13:42:53;25.30;99.90
13642;DHT22;6894;52.196;9.904;2022-07-21T13:45:20;25.30;99.90
13642;DHT22;6894;52.196;9.904;2022-07-21T13:47:47;25.10;99.90
13642;DHT22;6894;52.196;9.904;2022-07-21T13:50:14;24.80;99.90
13642;DHT22;6894;52.196;9.904;2022-07-21T13:52:42;24.30;99.90
13642;DHT22;6894;52.196;9.904;2022-07-21T13:55:09;24.10;99.90
13642;DHT22;6894;52.196;9.904;2022-07-21T13:57:36;23.90;99.90
13642;DHT22;6894;52.196;9.904;2022-07-21T14:00:04;23.80;99.90
13642;DHT22;6894;52.196;9.904;2022-07-21T14:02:35;23.70;99.90
13642;DHT22;6894;52.196;9.904;2022-07-21T14:05:03;23.70;99.90
13642;DHT22;6894;52.196;9.904;2022-07-21T14:07:30;23.40;99.90
13642;DHT22;6894;52.196;9.904;2022-07-21T14:09:58;23.00;99.90
13642;DHT22;6894;52.196;9.904;2022-07-21T14:12:25;22.80;99.90
13642;DHT22;6894;52.196;9.904;2022-07-21T14:14:52;22.20;99.90
13642;DHT22;6894;52.196;9.904;2022-07-21T14:17:19;21.60;99.90
13642;DHT22;6894;52.196;9.904;2022-07-21T14:19:46;21.30;99.90
13642;DHT22;6894;52.196;9.904;2022-07-21T14:22:15;21.10;99.90
13642;DHT22;6894;52.196;9.904;2022-07-21T14:24:43;20.90;99.90
13642;DHT22;6894;52.196;9.904;2022-07-21T14:27:28;20.90;99.90
13642;DHT22;6894;52.196;9.904;2022-07-21T14:29:55;20.80;99.90
13642;DHT22;6894;52.196;9.904;2022-07-21T14:32:22;20.70;99.90
13642;DHT22;6894;52.196;9.904;2022-07-21T14:34:48;20.80;99.90
13642;DHT22;6894;52.196;9.904;2022-07-21T14:37:16;20.70;99.90
13642;DHT22;6894;52.196;9.904;2022-07-21T14:39:44;20.70;99.90
13642;DHT22;6894;52.196;9.904;2022-07-21T14:42:12;20.90;99.90
13642;DHT22;6894;52.196;9.904;2022-07-21T14:44:42;21.10;99.90
13642;DHT22;6894;52.196;9.904;2022-07-21T14:47:09;21.20;99.90
13642;DHT22;6894;52.196;9.904;2022-07-21T14:49:37;21.40;99.90
13642;DHT22;6894;52.196;9.904;2022-07-21T14:52:04;21.50;99.90
13642;DHT22;6894;52.196;9.904;2022-07-21T14:54:31;21.60;99.90
13642;DHT22;6894;52.196;9.904;2022-07-21T14:56:58;21.50;99.90
13642;DHT22;6894;52.196;9.904;2022-07-21T14:59:28;21.50;99.90
13642;DHT22;6894;52.196;9.904;2022-07-21T15:01:56;21.40;99.90
13642;DHT22;6894;52.196;9.904;2022-07-21T15:04:23;21.30;99.90
13642;DHT22;6894;52.196;9.904;2022-07-21T15:06:50;21.30;99.90
13642;DHT22;6894;52.196;9.904;2022-07-21T15:09:16;21.10;99.90
13642;DHT22;6894;52.196;9.904;2022-07-21T15:11:43;20.80;99.90
13642;DHT22;6894;52.196;9.904;2022-07-21T15:14:11;20.70;99.90
13642;DHT22;6894;52.196;9.904;2022-07-21T15:16:38;20.60;99.90
13642;DHT22;6894;52.196;9.904;2022-07-21T15:19:06;20.50;99.90
13642;DHT22;6894;52.196;9.904;2022-07-21T15:21:33;20.50;99.90
13642;DHT22;6894;52.196;9.904;2022-07-21T15:24:00;20.40;99.90
13642;DHT22;6894;52.196;9.904;2022-07-21T15:26:27;20.40;99.90
13642;DHT22;6894;52.196;9.904;2022-07-21T15:28:54;20.40;99.90
13642;DHT22;6894;52.196;9.904;2022-07-21T15:31:20;20.40;99.90
13642;DHT22;6894;52.196;9.904;2022-07-21T15:33:47;20.60;99.90
13642;DHT22;6894;52.196;9.904;2022-07-21T15:36:15;20.60;99.90
13642;DHT22;6894;52.196;9.904;2022-07-21T15:38:42;20.60;99.90
13642;DHT22;6894;52.196;9.904;2022-07-21T15:41:09;20.70;99.90
13642;DHT22;6894;52.196;9.904;2022-07-21T15:43:36;20.80;99.90
13642;DHT22;6894;52.196;9.904;2022-07-21T15:46:02;21.00;99.90
13642;DHT22;6894;52.196;9.904;2022-07-21T15:48:29;21.30;99.90
13642;DHT22;6894;52.196;9.904;2022-07-21T15:50:56;21.40;99.90
13642;DHT22;6894;52.196;9.904;2022-07-21T15:53:24;21.40;99.90